sensor_id;sensor_type;location;lat;lon;timestamp;P1;durP1;ratioP1;P2;durP2;ratioP2
45522;SDS011;31254;51.680;5.394;2023-06-22T00:01:18;8.43;;;5.35;;
45522;SDS011;31254;51.680;5.394;2023-06-22T00:03:46;8.50;;;5.82;;
45522;SDS011;31254;51.680;5.394;2023-06-22T00:06:13;6.53;;;5.28;;
45522;SDS011;31254;51.680;5.394;2023-06-22T00:08:42;7.28;;;5.65;;
45522;SDS011;31254;51.680;5.394;2023-06-22T00:11:09;9.40;;;5.85;;
45522;SDS011;31254;51.680;5.394;2023-06-22T00:13:35;14.30;;;6.03;;
45522;SDS011;31254;51.680;5.394;2023-06-22T00:16:05;13.65;;;6.18;;
45522;SDS011;31254;51.680;5.394;2023-06-22T00:18:31;7.63;;;6.43;;
45522;SDS011;31254;51.680;5.394;2023-06-22T00:20:58;7.65;;;5.80;;
45522;SDS011;31254;51.680;5.394;2023-06-22T00:23:26;11.23;;;6.22;;
45522;SDS011;31254;51.680;5.394;2023-06-22T00:25:52;13.10;;;6.70;;
45522;SDS011;31254;51.680;5.394;2023-06-22T00:28:21;9.05;;;6.57;;
45522;SDS011;31254;51.680;5.394;2023-06-22T00:30:48;11.98;;;7.10;;
45522;SDS011;31254;51.680;5.394;2023-06-22T00:33:16;12.15;;;7.00;;
45522;SDS011;31254;51.680;5.394;2023-06-22T00:35:43;9.30;;;6.35;;
45522;SDS011;31254;51.680;5.394;2023-06-22T00:38:10;10.85;;;8.40;;
45522;SDS011;31254;51.680;5.394;2023-06-22T00:40:37;10.18;;;7.18;;
45522;SDS011;31254;51.680;5.394;2023-06-22T00:43:04;10.25;;;7.03;;
45522;SDS011;31254;51.680;5.394;2023-06-22T00:45:34;9.48;;;6.90;;
45522;SDS011;31254;51.680;5.394;2023-06-22T00:48:02;9.38;;;6.78;;
45522;SDS011;31254;51.680;5.394;2023-06-22T00:50:30;12.18;;;7.43;;
45522;SDS011;31254;51.680;5.394;2023-06-22T00:53:03;12.27;;;7.88;;
45522;SDS011;31254;51.680;5.394;2023-06-22T00:55:36;12.25;;;8.43;;
45522;SDS011;31254;51.680;5.394;2023-06-22T00:58:13;13.55;;;8.02;;
45522;SDS011;31254;51.680;5.394;2023-06-22T01:00:40;13.10;;;7.90;;
45522;SDS011;31254;51.680;5.394;2023-06-22T01:03:11;11.20;;;8.75;;
45522;SDS011;31254;51.680;5.394;2023-06-22T01:05:38;11.85;;;7.88;;
45522;SDS011;31254;51.680;5.394;2023-06-22T01:16:41;10.30;;;7.63;;
45522;SDS011;31254;51.680;5.394;2023-06-22T01:22:01;12.45;;;8.05;;
45522;SDS011;31254;51.680;5.394;2023-06-22T01:28:03;12.02;;;8.23;;
45522;SDS011;31254;51.680;5.394;2023-06-22T01:30:44;11.63;;;7.88;;
45522;SDS011;31254;51.680;5.394;2023-06-22T01:33:18;10.63;;;8.38;;
45522;SDS011;31254;51.680;5.394;2023-06-22T01:35:45;14.80;;;8.27;;
45522;SDS011;31254;51.680;5.394;2023-06-22T01:38:12;11.25;;;8.75;;
45522;SDS011;31254;51.680;5.394;2023-06-22T01:40:39;12.48;;;8.52;;
45522;SDS011;31254;51.680;5.394;2023-06-22T01:43:06;11.02;;;9.15;;
45522;SDS011;31254;51.680;5.394;2023-06-22T01:45:33;11.88;;;8.88;;
45522;SDS011;31254;51.680;5.394;2023-06-22T01:48:00;11.70;;;8.75;;
45522;SDS011;31254;51.680;5.394;2023-06-22T01:50:28;12.25;;;8.68;;
45522;SDS011;31254;51.680;5.394;2023-06-22T01:52:55;12.23;;;9.43;;
45522;SDS011;31254;51.680;5.394;2023-06-22T01:55:22;12.80;;;9.10;;
45522;SDS011;31254;51.680;5.394;2023-06-22T01:57:49;11.45;;;9.05;;
45522;SDS011;31254;51.680;5.394;2023-06-22T02:00:18;13.27;;;8.77;;
45522;SDS011;31254;51.680;5.394;2023-06-22T02:02:52;11.80;;;8.98;;
45522;SDS011;31254;51.680;5.394;2023-06-22T02:05:26;13.00;;;10.15;;
45522;SDS011;31254;51.680;5.394;2023-06-22T02:08:11;12.63;;;8.93;;
45522;SDS011;31254;51.680;5.394;2023-06-22T02:10:44;14.73;;;9.75;;
45522;SDS011;31254;51.680;5.394;2023-06-22T02:13:13;16.23;;;10.75;;
45522;SDS011;31254;51.680;5.394;2023-06-22T02:15:41;13.68;;;10.05;;
45522;SDS011;31254;51.680;5.394;2023-06-22T02:18:08;12.38;;;10.70;;
45522;SDS011;31254;51.680;5.394;2023-06-22T02:20:38;15.68;;;10.55;;
45522;SDS011;31254;51.680;5.394;2023-06-22T02:23:07;15.43;;;10.40;;
45522;SDS011;31254;51.680;5.394;2023-06-22T02:25:35;13.77;;;10.73;;
45522;SDS011;31254;51.680;5.394;2023-06-22T02:28:02;16.98;;;10.32;;
45522;SDS011;31254;51.680;5.394;2023-06-22T02:30:29;15.23;;;10.60;;
45522;SDS011;31254;51.680;5.394;2023-06-22T02:32:58;18.58;;;10.68;;
45522;SDS011;31254;51.680;5.394;2023-06-22T02:35:28;14.80;;;11.32;;
45522;SDS011;31254;51.680;5.394;2023-06-22T02:38:02;14.32;;;10.57;;
45522;SDS011;31254;51.680;5.394;2023-06-22T02:40:30;13.05;;;10.85;;
45522;SDS011;31254;51.680;5.394;2023-06-22T02:42:58;13.07;;;10.48;;
45522;SDS011;31254;51.680;5.394;2023-06-22T02:45:28;14.85;;;10.52;;
45522;SDS011;31254;51.680;5.394;2023-06-22T02:47:55;13.98;;;10.18;;
45522;SDS011;31254;51.680;5.394;2023-06-22T02:50:23;13.98;;;10.93;;
45522;SDS011;31254;51.680;5.394;2023-06-22T02:52:50;13.63;;;10.55;;
45522;SDS011;31254;51.680;5.394;2023-06-22T02:55:17;14.55;;;10.73;;
45522;SDS011;31254;51.680;5.394;2023-06-22T02:57:43;14.48;;;11.25;;
45522;SDS011;31254;51.680;5.394;2023-06-22T03:00:14;15.88;;;11.48;;
45522;SDS011;31254;51.680;5.394;2023-06-22T03:02:44;14.40;;;11.50;;
45522;SDS011;31254;51.680;5.394;2023-06-22T03:05:14;14.52;;;11.98;;
45522;SDS011;31254;51.680;5.394;2023-06-22T03:07:44;15.07;;;11.32;;
45522;SDS011;31254;51.680;5.394;2023-06-22T03:10:12;14.90;;;11.40;;
45522;SDS011;31254;51.680;5.394;2023-06-22T03:16:30;13.43;;;11.43;;
45522;SDS011;31254;51.680;5.394;2023-06-22T03:18:57;16.48;;;11.65;;
45522;SDS011;31254;51.680;5.394;2023-06-22T03:21:27;14.10;;;11.48;;
45522;SDS011;31254;51.680;5.394;2023-06-22T03:23:58;15.10;;;11.80;;
45522;SDS011;31254;51.680;5.394;2023-06-22T03:26:25;15.43;;;12.20;;
45522;SDS011;31254;51.680;5.394;2023-06-22T03:28:54;16.52;;;12.05;;
45522;SDS011;31254;51.680;5.394;2023-06-22T03:31:20;16.67;;;12.48;;
45522;SDS011;31254;51.680;5.394;2023-06-22T03:33:50;14.90;;;11.25;;
45522;SDS011;31254;51.680;5.394;2023-06-22T03:36:18;17.98;;;12.20;;
45522;SDS011;31254;51.680;5.394;2023-06-22T03:38:49;19.17;;;12.43;;
45522;SDS011;31254;51.680;5.394;2023-06-22T03:41:17;15.35;;;11.18;;
45522;SDS011;31254;51.680;5.394;2023-06-22T03:43:46;16.88;;;12.68;;
45522;SDS011;31254;51.680;5.394;2023-06-22T03:46:13;17.60;;;12.98;;
45522;SDS011;31254;51.680;5.394;2023-06-22T03:48:40;17.63;;;12.48;;
45522;SDS011;31254;51.680;5.394;2023-06-22T03:51:07;16.08;;;11.43;;
45522;SDS011;31254;51.680;5.394;2023-06-22T03:53:33;16.88;;;12.57;;
45522;SDS011;31254;51.680;5.394;2023-06-22T03:56:00;16.63;;;12.77;;
45522;SDS011;31254;51.680;5.394;2023-06-22T03:58:29;17.45;;;12.60;;
45522;SDS011;31254;51.680;5.394;2023-06-22T04:00:59;18.25;;;12.40;;
45522;SDS011;31254;51.680;5.394;2023-06-22T04:03:26;16.80;;;12.45;;
45522;SDS011;31254;51.680;5.394;2023-06-22T04:05:53;18.52;;;12.38;;
45522;SDS011;31254;51.680;5.394;2023-06-22T04:08:22;16.92;;;12.45;;
45522;SDS011;31254;51.680;5.394;2023-06-22T04:10:49;16.30;;;11.90;;
45522;SDS011;31254;51.680;5.394;2023-06-22T04:13:15;16.65;;;12.18;;
45522;SDS011;31254;51.680;5.394;2023-06-22T04:15:44;16.05;;;11.38;;
45522;SDS011;31254;51.680;5.394;2023-06-22T04:18:15;14.73;;;10.98;;
45522;SDS011;31254;51.680;5.394;2023-06-22T04:20:41;13.88;;;11.05;;
45522;SDS011;31254;51.680;5.394;2023-06-22T04:23:08;15.10;;;10.40;;
45522;SDS011;31254;51.680;5.394;2023-06-22T04:25:35;20.35;;;10.63;;
45522;SDS011;31254;51.680;5.394;2023-06-22T04:28:02;13.85;;;10.40;;
45522;SDS011;31254;51.680;5.394;2023-06-22T04:30:32;14.60;;;9.98;;
45522;SDS011;31254;51.680;5.394;2023-06-22T04:32:59;12.20;;;9.82;;
45522;SDS011;31254;51.680;5.394;2023-06-22T04:35:28;12.57;;;9.55;;
45522;SDS011;31254;51.680;5.394;2023-06-22T04:37:57;14.02;;;9.57;;
45522;SDS011;31254;51.680;5.394;2023-06-22T04:40:24;13.73;;;9.95;;
45522;SDS011;31254;51.680;5.394;2023-06-22T04:42:52;13.15;;;9.88;;
45522;SDS011;31254;51.680;5.394;2023-06-22T04:45:23;15.38;;;10.18;;
45522;SDS011;31254;51.680;5.394;2023-06-22T04:47:50;14.52;;;10.40;;
45522;SDS011;31254;51.680;5.394;2023-06-22T04:50:17;14.32;;;9.05;;
45522;SDS011;31254;51.680;5.394;2023-06-22T04:52:47;12.20;;;9.20;;
45522;SDS011;31254;51.680;5.394;2023-06-22T04:55:14;15.95;;;9.50;;
45522;SDS011;31254;51.680;5.394;2023-06-22T04:57:46;12.85;;;9.25;;
45522;SDS011;31254;51.680;5.394;2023-06-22T05:00:17;14.32;;;8.82;;
45522;SDS011;31254;51.680;5.394;2023-06-22T05:02:52;12.70;;;8.82;;
45522;SDS011;31254;51.680;5.394;2023-06-22T05:05:29;11.15;;;8.57;;
45522;SDS011;31254;51.680;5.394;2023-06-22T05:07:56;14.75;;;9.20;;
45522;SDS011;31254;51.680;5.394;2023-06-22T05:10:26;12.48;;;9.70;;
45522;SDS011;31254;51.680;5.394;2023-06-22T05:12:53;12.60;;;9.40;;
45522;SDS011;31254;51.680;5.394;2023-06-22T05:15:23;13.90;;;9.40;;
45522;SDS011;31254;51.680;5.394;2023-06-22T05:17:53;19.13;;;9.65;;
45522;SDS011;31254;51.680;5.394;2023-06-22T05:20:20;13.32;;;9.23;;
45522;SDS011;31254;51.680;5.394;2023-06-22T05:22:48;12.75;;;8.75;;
45522;SDS011;31254;51.680;5.394;2023-06-22T05:25:17;13.75;;;9.75;;
45522;SDS011;31254;51.680;5.394;2023-06-22T05:27:44;13.52;;;10.27;;
45522;SDS011;31254;51.680;5.394;2023-06-22T05:30:11;13.93;;;9.93;;
45522;SDS011;31254;51.680;5.394;2023-06-22T05:32:38;12.00;;;9.30;;
45522;SDS011;31254;51.680;5.394;2023-06-22T05:35:05;13.98;;;9.77;;
45522;SDS011;31254;51.680;5.394;2023-06-22T05:37:32;13.20;;;10.35;;
45522;SDS011;31254;51.680;5.394;2023-06-22T05:39:58;13.38;;;10.98;;
45522;SDS011;31254;51.680;5.394;2023-06-22T05:42:25;14.95;;;10.68;;
45522;SDS011;31254;51.680;5.394;2023-06-22T05:44:54;15.82;;;10.63;;
45522;SDS011;31254;51.680;5.394;2023-06-22T05:47:21;12.35;;;10.32;;
45522;SDS011;31254;51.680;5.394;2023-06-22T05:49:49;11.30;;;9.63;;
45522;SDS011;31254;51.680;5.394;2023-06-22T05:52:16;15.73;;;11.13;;
45522;SDS011;31254;51.680;5.394;2023-06-22T05:54:42;15.50;;;10.48;;
45522;SDS011;31254;51.680;5.394;2023-06-22T05:57:09;13.90;;;11.20;;
45522;SDS011;31254;51.680;5.394;2023-06-22T05:59:39;12.63;;;9.98;;
45522;SDS011;31254;51.680;5.394;2023-06-22T06:02:08;13.20;;;10.32;;
45522;SDS011;31254;51.680;5.394;2023-06-22T06:04:37;20.27;;;11.05;;
45522;SDS011;31254;51.680;5.394;2023-06-22T06:07:07;13.32;;;10.63;;
45522;SDS011;31254;51.680;5.394;2023-06-22T06:09:34;13.68;;;10.50;;
45522;SDS011;31254;51.680;5.394;2023-06-22T06:12:00;14.80;;;10.27;;
45522;SDS011;31254;51.680;5.394;2023-06-22T06:14:29;14.63;;;10.52;;
45522;SDS011;31254;51.680;5.394;2023-06-22T06:16:56;16.02;;;11.02;;
45522;SDS011;31254;51.680;5.394;2023-06-22T06:19:23;15.43;;;12.10;;
45522;SDS011;31254;51.680;5.394;2023-06-22T06:21:52;14.88;;;11.07;;
45522;SDS011;31254;51.680;5.394;2023-06-22T06:24:21;15.75;;;11.18;;
45522;SDS011;31254;51.680;5.394;2023-06-22T06:26:48;13.40;;;10.73;;
45522;SDS011;31254;51.680;5.394;2023-06-22T06:29:14;12.35;;;10.60;;
45522;SDS011;31254;51.680;5.394;2023-06-22T06:31:42;19.25;;;13.02;;
45522;SDS011;31254;51.680;5.394;2023-06-22T06:34:09;19.25;;;12.90;;
45522;SDS011;31254;51.680;5.394;2023-06-22T06:36:38;19.88;;;13.88;;
45522;SDS011;31254;51.680;5.394;2023-06-22T06:39:05;17.60;;;12.93;;
45522;SDS011;31254;51.680;5.394;2023-06-22T06:41:31;16.33;;;12.57;;
45522;SDS011;31254;51.680;5.394;2023-06-22T06:43:58;17.50;;;11.85;;
45522;SDS011;31254;51.680;5.394;2023-06-22T06:46:27;18.73;;;12.93;;
45522;SDS011;31254;51.680;5.394;2023-06-22T06:48:54;15.70;;;12.82;;
45522;SDS011;31254;51.680;5.394;2023-06-22T06:51:21;16.60;;;12.88;;
45522;SDS011;31254;51.680;5.394;2023-06-22T06:53:50;17.45;;;12.15;;
45522;SDS011;31254;51.680;5.394;2023-06-22T06:56:17;17.33;;;11.90;;
45522;SDS011;31254;51.680;5.394;2023-06-22T06:58:44;15.93;;;12.25;;
45522;SDS011;31254;51.680;5.394;2023-06-22T07:01:14;17.92;;;11.85;;
45522;SDS011;31254;51.680;5.394;2023-06-22T07:03:41;16.13;;;11.40;;
45522;SDS011;31254;51.680;5.394;2023-06-22T07:06:08;16.73;;;12.65;;
45522;SDS011;31254;51.680;5.394;2023-06-22T07:08:35;17.23;;;11.65;;
45522;SDS011;31254;51.680;5.394;2023-06-22T07:11:03;19.73;;;11.77;;
45522;SDS011;31254;51.680;5.394;2023-06-22T07:13:32;16.95;;;12.05;;
45522;SDS011;31254;51.680;5.394;2023-06-22T07:16:01;19.33;;;12.65;;
45522;SDS011;31254;51.680;5.394;2023-06-22T07:18:27;23.67;;;13.77;;
45522;SDS011;31254;51.680;5.394;2023-06-22T07:20:54;17.85;;;12.95;;
45522;SDS011;31254;51.680;5.394;2023-06-22T07:23:23;17.13;;;12.80;;
45522;SDS011;31254;51.680;5.394;2023-06-22T07:25:50;18.60;;;13.52;;
45522;SDS011;31254;51.680;5.394;2023-06-22T07:28:16;26.90;;;14.68;;
45522;SDS011;31254;51.680;5.394;2023-06-22T07:30:45;19.25;;;13.43;;
45522;SDS011;31254;51.680;5.394;2023-06-22T07:33:15;18.35;;;14.00;;
45522;SDS011;31254;51.680;5.394;2023-06-22T07:35:44;17.38;;;13.27;;
45522;SDS011;31254;51.680;5.394;2023-06-22T07:38:10;17.98;;;13.57;;
45522;SDS011;31254;51.680;5.394;2023-06-22T07:40:41;18.58;;;13.07;;
45522;SDS011;31254;51.680;5.394;2023-06-22T07:43:08;20.13;;;13.50;;
45522;SDS011;31254;51.680;5.394;2023-06-22T07:45:34;19.17;;;13.90;;
45522;SDS011;31254;51.680;5.394;2023-06-22T07:48:03;17.90;;;13.65;;
45522;SDS011;31254;51.680;5.394;2023-06-22T07:50:32;17.90;;;13.57;;
45522;SDS011;31254;51.680;5.394;2023-06-22T07:52:59;19.50;;;14.55;;
45522;SDS011;31254;51.680;5.394;2023-06-22T07:55:26;19.85;;;13.90;;
45522;SDS011;31254;51.680;5.394;2023-06-22T07:57:53;19.27;;;13.32;;
45522;SDS011;31254;51.680;5.394;2023-06-22T08:00:24;21.63;;;13.45;;
45522;SDS011;31254;51.680;5.394;2023-06-22T08:02:51;18.75;;;13.77;;
45522;SDS011;31254;51.680;5.394;2023-06-22T08:05:18;20.55;;;14.23;;
45522;SDS011;31254;51.680;5.394;2023-06-22T08:07:48;19.58;;;14.43;;
45522;SDS011;31254;51.680;5.394;2023-06-22T08:10:19;21.75;;;15.27;;
45522;SDS011;31254;51.680;5.394;2023-06-22T08:12:49;17.42;;;14.30;;
45522;SDS011;31254;51.680;5.394;2023-06-22T08:15:15;18.45;;;13.73;;
45522;SDS011;31254;51.680;5.394;2023-06-22T08:17:44;20.50;;;13.48;;
45522;SDS011;31254;51.680;5.394;2023-06-22T08:20:14;21.27;;;14.10;;
45522;SDS011;31254;51.680;5.394;2023-06-22T08:22:41;20.02;;;14.25;;
45522;SDS011;31254;51.680;5.394;2023-06-22T08:25:09;18.55;;;14.02;;
45522;SDS011;31254;51.680;5.394;2023-06-22T08:27:37;20.08;;;12.65;;
45522;SDS011;31254;51.680;5.394;2023-06-22T08:30:04;16.95;;;12.45;;
45522;SDS011;31254;51.680;5.394;2023-06-22T08:32:39;17.55;;;11.90;;
45522;SDS011;31254;51.680;5.394;2023-06-22T08:35:06;19.55;;;13.38;;
45522;SDS011;31254;51.680;5.394;2023-06-22T08:37:36;16.42;;;12.45;;
45522;SDS011;31254;51.680;5.394;2023-06-22T08:40:06;18.02;;;11.68;;
45522;SDS011;31254;51.680;5.394;2023-06-22T08:42:37;19.17;;;12.48;;
45522;SDS011;31254;51.680;5.394;2023-06-22T08:45:06;15.75;;;12.23;;
45522;SDS011;31254;51.680;5.394;2023-06-22T08:47:33;16.10;;;12.80;;
45522;SDS011;31254;51.680;5.394;2023-06-22T08:50:00;22.70;;;11.95;;
45522;SDS011;31254;51.680;5.394;2023-06-22T08:52:29;15.43;;;10.82;;
45522;SDS011;31254;51.680;5.394;2023-06-22T08:54:57;21.73;;;11.05;;
45522;SDS011;31254;51.680;5.394;2023-06-22T08:57:25;15.85;;;10.68;;
45522;SDS011;31254;51.680;5.394;2023-06-22T08:59:52;14.20;;;11.00;;
45522;SDS011;31254;51.680;5.394;2023-06-22T09:02:25;15.45;;;10.95;;
45522;SDS011;31254;51.680;5.394;2023-06-22T09:05:03;15.05;;;11.40;;
45522;SDS011;31254;51.680;5.394;2023-06-22T09:07:32;14.25;;;10.07;;
45522;SDS011;31254;51.680;5.394;2023-06-22T09:10:00;15.38;;;9.90;;
45522;SDS011;31254;51.680;5.394;2023-06-22T09:12:29;15.45;;;9.85;;
45522;SDS011;31254;51.680;5.394;2023-06-22T09:14:59;17.33;;;8.82;;
45522;SDS011;31254;51.680;5.394;2023-06-22T09:17:27;13.63;;;8.82;;
45522;SDS011;31254;51.680;5.394;2023-06-22T09:19:56;14.52;;;8.38;;
45522;SDS011;31254;51.680;5.394;2023-06-22T09:22:25;12.13;;;7.85;;
45522;SDS011;31254;51.680;5.394;2023-06-22T09:24:55;16.10;;;8.23;;
45522;SDS011;31254;51.680;5.394;2023-06-22T09:27:22;13.60;;;8.57;;
45522;SDS011;31254;51.680;5.394;2023-06-22T09:29:49;14.02;;;9.27;;
45522;SDS011;31254;51.680;5.394;2023-06-22T09:32:16;14.05;;;7.88;;
45522;SDS011;31254;51.680;5.394;2023-06-22T09:34:43;12.18;;;8.38;;
45522;SDS011;31254;51.680;5.394;2023-06-22T09:37:12;17.20;;;11.13;;
45522;SDS011;31254;51.680;5.394;2023-06-22T09:39:39;14.55;;;9.20;;
45522;SDS011;31254;51.680;5.394;2023-06-22T09:42:06;14.07;;;8.45;;
45522;SDS011;31254;51.680;5.394;2023-06-22T09:44:35;8.98;;;6.82;;
45522;SDS011;31254;51.680;5.394;2023-06-22T09:47:02;8.85;;;6.72;;
45522;SDS011;31254;51.680;5.394;2023-06-22T09:49:30;10.43;;;6.22;;
45522;SDS011;31254;51.680;5.394;2023-06-22T09:52:13;11.65;;;6.70;;
45522;SDS011;31254;51.680;5.394;2023-06-22T09:54:43;13.20;;;6.35;;
45522;SDS011;31254;51.680;5.394;2023-06-22T09:57:10;10.93;;;6.95;;
45522;SDS011;31254;51.680;5.394;2023-06-22T09:59:39;11.93;;;6.90;;
45522;SDS011;31254;51.680;5.394;2023-06-22T10:02:08;8.50;;;6.57;;
45522;SDS011;31254;51.680;5.394;2023-06-22T10:04:37;11.10;;;5.78;;
45522;SDS011;31254;51.680;5.394;2023-06-22T10:07:06;8.25;;;6.18;;
45522;SDS011;31254;51.680;5.394;2023-06-22T10:09:33;12.18;;;6.70;;
45522;SDS011;31254;51.680;5.394;2023-06-22T10:12:02;11.77;;;6.75;;
45522;SDS011;31254;51.680;5.394;2023-06-22T10:14:31;9.52;;;6.32;;
45522;SDS011;31254;51.680;5.394;2023-06-22T10:16:57;10.75;;;7.22;;
45522;SDS011;31254;51.680;5.394;2023-06-22T10:19:25;9.52;;;6.82;;
45522;SDS011;31254;51.680;5.394;2023-06-22T10:21:52;11.38;;;7.65;;
45522;SDS011;31254;51.680;5.394;2023-06-22T10:24:19;11.35;;;7.28;;
45522;SDS011;31254;51.680;5.394;2023-06-22T10:26:46;10.50;;;7.07;;
45522;SDS011;31254;51.680;5.394;2023-06-22T10:29:13;10.57;;;6.65;;
45522;SDS011;31254;51.680;5.394;2023-06-22T10:31:42;8.13;;;6.05;;
45522;SDS011;31254;51.680;5.394;2023-06-22T10:34:09;8.13;;;6.10;;
45522;SDS011;31254;51.680;5.394;2023-06-22T10:36:36;10.07;;;6.07;;
45522;SDS011;31254;51.680;5.394;2023-06-22T10:39:03;8.32;;;6.07;;
45522;SDS011;31254;51.680;5.394;2023-06-22T10:41:30;8.77;;;6.00;;
45522;SDS011;31254;51.680;5.394;2023-06-22T10:43:57;11.48;;;6.88;;
45522;SDS011;31254;51.680;5.394;2023-06-22T10:46:24;8.30;;;6.88;;
45522;SDS011;31254;51.680;5.394;2023-06-22T10:48:52;8.82;;;6.70;;
45522;SDS011;31254;51.680;5.394;2023-06-22T10:51:21;11.77;;;6.38;;
45522;SDS011;31254;51.680;5.394;2023-06-22T10:53:48;11.02;;;6.45;;
45522;SDS011;31254;51.680;5.394;2023-06-22T10:56:15;8.00;;;6.30;;
45522;SDS011;31254;51.680;5.394;2023-06-22T10:58:41;10.52;;;6.93;;
45522;SDS011;31254;51.680;5.394;2023-06-22T11:01:11;8.90;;;6.93;;
45522;SDS011;31254;51.680;5.394;2023-06-22T11:03:55;12.73;;;7.32;;
45522;SDS011;31254;51.680;5.394;2023-06-22T11:06:22;12.30;;;8.20;;
45522;SDS011;31254;51.680;5.394;2023-06-22T11:08:49;10.10;;;8.40;;
45522;SDS011;31254;51.680;5.394;2023-06-22T11:11:31;16.67;;;9.75;;
45522;SDS011;31254;51.680;5.394;2023-06-22T11:14:01;13.20;;;10.18;;
45522;SDS011;31254;51.680;5.394;2023-06-22T11:16:27;16.02;;;10.25;;
45522;SDS011;31254;51.680;5.394;2023-06-22T11:18:56;13.38;;;10.93;;
45522;SDS011;31254;51.680;5.394;2023-06-22T11:21:23;14.20;;;10.70;;
45522;SDS011;31254;51.680;5.394;2023-06-22T11:23:50;13.70;;;11.40;;
45522;SDS011;31254;51.680;5.394;2023-06-22T11:26:17;12.93;;;10.98;;
45522;SDS011;31254;51.680;5.394;2023-06-22T11:28:44;13.18;;;11.02;;
45522;SDS011;31254;51.680;5.394;2023-06-22T11:31:11;12.15;;;10.32;;
45522;SDS011;31254;51.680;5.394;2023-06-22T11:33:40;14.27;;;10.52;;
45522;SDS011;31254;51.680;5.394;2023-06-22T11:36:07;13.13;;;10.27;;
45522;SDS011;31254;51.680;5.394;2023-06-22T11:38:35;12.77;;;11.02;;
45522;SDS011;31254;51.680;5.394;2023-06-22T11:41:03;14.48;;;11.13;;
45522;SDS011;31254;51.680;5.394;2023-06-22T11:43:29;14.82;;;11.20;;
45522;SDS011;31254;51.680;5.394;2023-06-22T11:45:56;16.27;;;11.85;;
45522;SDS011;31254;51.680;5.394;2023-06-22T11:48:26;18.73;;;11.63;;
45522;SDS011;31254;51.680;5.394;2023-06-22T11:50:53;18.25;;;12.50;;
45522;SDS011;31254;51.680;5.394;2023-06-22T11:53:24;15.45;;;12.15;;
45522;SDS011;31254;51.680;5.394;2023-06-22T11:55:52;16.55;;;12.32;;
45522;SDS011;31254;51.680;5.394;2023-06-22T11:58:20;16.05;;;12.85;;
45522;SDS011;31254;51.680;5.394;2023-06-22T12:00:47;16.10;;;12.35;;
45522;SDS011;31254;51.680;5.394;2023-06-22T12:03:17;18.80;;;12.55;;
45522;SDS011;31254;51.680;5.394;2023-06-22T12:05:49;21.23;;;14.68;;
45522;SDS011;31254;51.680;5.394;2023-06-22T12:08:20;15.57;;;13.50;;
45522;SDS011;31254;51.680;5.394;2023-06-22T12:10:47;16.45;;;13.02;;
45522;SDS011;31254;51.680;5.394;2023-06-22T12:13:16;15.65;;;13.50;;
45522;SDS011;31254;51.680;5.394;2023-06-22T12:15:43;14.57;;;12.65;;
45522;SDS011;31254;51.680;5.394;2023-06-22T12:18:10;16.60;;;13.05;;
45522;SDS011;31254;51.680;5.394;2023-06-22T12:20:37;19.70;;;12.93;;
45522;SDS011;31254;51.680;5.394;2023-06-22T12:23:06;15.65;;;12.10;;
45522;SDS011;31254;51.680;5.394;2023-06-22T12:25:33;17.73;;;12.85;;
45522;SDS011;31254;51.680;5.394;2023-06-22T12:28:00;17.25;;;13.40;;
45522;SDS011;31254;51.680;5.394;2023-06-22T12:30:32;17.92;;;13.68;;
45522;SDS011;31254;51.680;5.394;2023-06-22T12:32:59;15.15;;;12.73;;
45522;SDS011;31254;51.680;5.394;2023-06-22T12:35:26;18.23;;;13.90;;
45522;SDS011;31254;51.680;5.394;2023-06-22T12:37:53;19.67;;;15.07;;
45522;SDS011;31254;51.680;5.394;2023-06-22T12:40:22;18.10;;;13.98;;
45522;SDS011;31254;51.680;5.394;2023-06-22T12:42:52;19.90;;;14.75;;
45522;SDS011;31254;51.680;5.394;2023-06-22T12:45:22;17.75;;;13.88;;
45522;SDS011;31254;51.680;5.394;2023-06-22T12:47:53;16.38;;;14.35;;
45522;SDS011;31254;51.680;5.394;2023-06-22T12:50:20;19.20;;;14.38;;
45522;SDS011;31254;51.680;5.394;2023-06-22T12:52:47;17.25;;;14.77;;
45522;SDS011;31254;51.680;5.394;2023-06-22T12:55:14;16.35;;;13.27;;
45522;SDS011;31254;51.680;5.394;2023-06-22T12:57:41;16.95;;;14.10;;
45522;SDS011;31254;51.680;5.394;2023-06-22T13:00:08;18.27;;;13.73;;
45522;SDS011;31254;51.680;5.394;2023-06-22T13:02:39;16.05;;;13.55;;
45522;SDS011;31254;51.680;5.394;2023-06-22T13:05:09;18.60;;;13.48;;
45522;SDS011;31254;51.680;5.394;2023-06-22T13:07:35;22.40;;;14.52;;
45522;SDS011;31254;51.680;5.394;2023-06-22T13:10:02;19.58;;;14.38;;
45522;SDS011;31254;51.680;5.394;2023-06-22T13:12:29;17.08;;;15.00;;
45522;SDS011;31254;51.680;5.394;2023-06-22T13:14:58;19.48;;;15.07;;
45522;SDS011;31254;51.680;5.394;2023-06-22T13:17:25;19.70;;;15.20;;
45522;SDS011;31254;51.680;5.394;2023-06-22T13:19:52;18.88;;;15.10;;
45522;SDS011;31254;51.680;5.394;2023-06-22T13:22:34;19.42;;;14.60;;
45522;SDS011;31254;51.680;5.394;2023-06-22T13:25:07;17.10;;;14.98;;
45522;SDS011;31254;51.680;5.394;2023-06-22T13:27:41;20.13;;;15.05;;
45522;SDS011;31254;51.680;5.394;2023-06-22T13:30:08;18.33;;;14.25;;
45522;SDS011;31254;51.680;5.394;2023-06-22T13:32:40;21.60;;;13.57;;
45522;SDS011;31254;51.680;5.394;2023-06-22T13:35:11;16.55;;;13.75;;
45522;SDS011;31254;51.680;5.394;2023-06-22T13:37:40;17.77;;;13.65;;
45522;SDS011;31254;51.680;5.394;2023-06-22T13:40:09;17.20;;;15.18;;
45522;SDS011;31254;51.680;5.394;2023-06-22T13:42:38;20.00;;;15.55;;
45522;SDS011;31254;51.680;5.394;2023-06-22T13:45:06;20.48;;;13.80;;
45522;SDS011;31254;51.680;5.394;2023-06-22T13:47:33;16.75;;;14.25;;
45522;SDS011;31254;51.680;5.394;2023-06-22T13:50:00;19.08;;;15.07;;
45522;SDS011;31254;51.680;5.394;2023-06-22T13:52:27;19.17;;;12.77;;
45522;SDS011;31254;51.680;5.394;2023-06-22T13:54:54;18.63;;;14.43;;
45522;SDS011;31254;51.680;5.394;2023-06-22T13:57:23;20.05;;;14.40;;
45522;SDS011;31254;51.680;5.394;2023-06-22T13:59:52;19.00;;;14.35;;
45522;SDS011;31254;51.680;5.394;2023-06-22T14:02:22;17.75;;;15.27;;
45522;SDS011;31254;51.680;5.394;2023-06-22T14:04:50;21.15;;;15.38;;
45522;SDS011;31254;51.680;5.394;2023-06-22T14:07:17;20.75;;;15.57;;
45522;SDS011;31254;51.680;5.394;2023-06-22T14:09:48;19.35;;;15.85;;
45522;SDS011;31254;51.680;5.394;2023-06-22T14:12:17;17.95;;;15.35;;
45522;SDS011;31254;51.680;5.394;2023-06-22T14:14:48;19.25;;;16.48;;
45522;SDS011;31254;51.680;5.394;2023-06-22T14:17:15;22.83;;;16.83;;
45522;SDS011;31254;51.680;5.394;2023-06-22T14:19:44;20.48;;;17.30;;
45522;SDS011;31254;51.680;5.394;2023-06-22T14:22:10;19.83;;;16.77;;
45522;SDS011;31254;51.680;5.394;2023-06-22T14:24:37;19.98;;;16.63;;
45522;SDS011;31254;51.680;5.394;2023-06-22T14:27:06;19.58;;;16.38;;
45522;SDS011;31254;51.680;5.394;2023-06-22T14:29:35;20.73;;;16.48;;
45522;SDS011;31254;51.680;5.394;2023-06-22T14:32:03;24.60;;;17.65;;
45522;SDS011;31254;51.680;5.394;2023-06-22T14:34:33;22.98;;;18.02;;
45522;SDS011;31254;51.680;5.394;2023-06-22T14:37:06;24.63;;;18.17;;
45522;SDS011;31254;51.680;5.394;2023-06-22T14:39:37;25.48;;;18.80;;
45522;SDS011;31254;51.680;5.394;2023-06-22T14:42:06;22.23;;;18.55;;
45522;SDS011;31254;51.680;5.394;2023-06-22T14:44:34;22.40;;;18.98;;
45522;SDS011;31254;51.680;5.394;2023-06-22T14:47:01;28.60;;;20.67;;
45522;SDS011;31254;51.680;5.394;2023-06-22T14:49:28;24.20;;;19.92;;
45522;SDS011;31254;51.680;5.394;2023-06-22T14:51:55;25.92;;;19.55;;